Mafeking, South Africa
Current Conditions -  °F | °C
As of 3:00 AM on Tuesday 25 Nov 2014 (Local Time) from FAMM Reporting Station
NA  
Wind Chill: 61°   Ceiling: NA
Heat Index: 61°   Visibility: NA
Dew Point: 52°   Wind: 8mph
Humidity: 72%   Direction: 60°ENE
Pressure: 30.06"   Gusts: NA
Location:  25.86°S, 25.65°E
Report Text: FAMM 250100Z AUTO 06007KT //// // ////// 16/11 Q1018
Loading
Personal Weather Stations






























Interactive Weather Map New forecast layout! Learn more

10-Day Weather Forecast

Advertisements
Track Severe Weather on mobile